Flight Track Log - Related Links

Times and Time Zones

All times are in EDT time to prevent confusion due to time zone crossing. See the UAL1202 flight status page for this flight to view local times or setup timezone preferences in your user account.

Time Position Orientation Groundspeed Altitude Reporting Facility
EDT Latitude Longitude Course Direction KTS MPH feet Rate Location/Type
Fri 12:44:54 AM 39.8600 -104.6850 270° West 18 21  Level FlightAware ADS-B
Fri 12:45:18 AM 39.8630 -104.6850 360° North 18 21 2,392 Level FlightAware ADS-B
Fri 12:45:56 AM 39.8640 -104.6860 322° Northwest 29 33 2,855 Level FlightAware ADS-B
Fri 12:47:22 AM 39.8959 -104.6870 360° North 176 203 5,900 3,938 Climbing FlightAware ADS-B
Fri 12:47:32 AM 39.9041 -104.6870 360° North 178 205 6,300 1,826 Climbing FlightAware ADS-B
Fri 12:47:45 AM 39.9155 -104.6870 360° North 192 221 6,600 1,500 Climbing FlightAware ADS-B
Fri 12:48:00 AM 39.9297 -104.6880 357° North 210 242 7,000 1,304 Climbing FlightAware ADS-B
Fri 12:48:08 AM 39.9377 -104.6880 360° North 220 253 7,100 1,043 Climbing FlightAware ADS-B
Fri 12:48:23 AM 39.9545 -104.6890 357° North 241 277 7,400 1,548 Climbing FlightAware ADS-B
Fri 12:48:39 AM 39.9726 -104.6890 360° North 252 290 7,900 2,323 Climbing FlightAware ADS-B
Fri 12:48:54 AM 39.9905 -104.6890 360° North 252 290 8,600 2,571 Climbing FlightAware ADS-B
Fri 12:49:07 AM 40.0065 -104.6900 357° North 263 303 9,100 2,000 Climbing FlightAware ADS-B
Fri 12:49:12 AM 40.0116 -104.6900 360° North 269 310 9,200 900 Climbing FlightAware ADS-B
Fri 12:49:27 AM 40.0312 -104.6890 North 289 333 9,400 1,400 Climbing FlightAware ADS-B
Fri 12:49:42 AM 40.0524 -104.6890 360° North 301 346 9,900 1,895 Climbing FlightAware ADS-B
Fri 12:50:05 AM 40.0856 -104.6870 North 317 365 10,600 1,600 Climbing FlightAware ADS-B
Fri 12:50:27 AM 40.1197 -104.6840 North 341 392 11,100 2,151 Climbing FlightAware ADS-B
Fri 12:50:58 AM 40.1679 -104.6790 North 345 397 12,500 2,842 Climbing FlightAware ADS-B
Fri 12:51:24 AM 40.2097 -104.6740 North 349 402 13,800 2,897 Climbing FlightAware ADS-B
Fri 12:51:27 AM 40.2152 -104.6740 360° North 349 402 13,900 2,667 Climbing FlightAware ADS-B
Fri 12:51:33 AM 40.2243 -104.6760 350° North 350 403 14,200 3,000 Climbing FlightAware ADS-B
Fri 12:51:37 AM 40.2311 -104.6780 347° North 349 402 14,400 2,182 Climbing FlightAware ADS-B
Fri 12:51:44 AM 40.2412 -104.6820 343° North 350 403 14,600 2,308 Climbing FlightAware ADS-B
Fri 12:51:50 AM 40.2498 -104.6870 336° Northwest 351 404 14,900 2,438 Climbing FlightAware ADS-B
Fri 12:52:16 AM 40.2871 -104.7150 330° Northwest 360 414 15,900 2,357 Climbing FlightAware ADS-B
Fri 12:52:46 AM 40.3314 -104.7480 330° Northwest 370 426 17,100 2,438 Climbing FlightAware ADS-B
Fri 12:53:20 AM 40.3824 -104.7860 330° Northwest 377 434 18,500 2,438 Climbing FlightAware ADS-B
Fri 12:53:50 AM 40.4288 -104.8200 331° Northwest 382 440 19,700 2,314 Climbing FlightAware ADS-B
Fri 12:54:30 AM 40.4913 -104.8660 331° Northwest 391 450 21,200 2,250 Climbing FlightAware ADS-B
Fri 12:55:02 AM 40.5427 -104.9040 331° Northwest 396 456 22,400 2,190 Climbing FlightAware ADS-B
Fri 12:55:33 AM 40.5920 -104.9400 331° Northwest 398 458 23,500 2,066 Climbing FlightAware ADS-B
Fri 12:56:03 AM 40.6408 -104.9760 331° Northwest 403 464 24,500 1,770 Climbing FlightAware ADS-B
Fri 12:56:34 AM 40.6914 -105.0140 330° Northwest 410 472 25,300 1,574 Climbing FlightAware ADS-B
Fri 12:57:04 AM 40.7420 -105.0510 331° Northwest 417 480 26,100 1,636 Climbing FlightAware ADS-B
Fri 12:57:18 AM 40.7641 -105.0700 327° Northwest 417 480 26,500 1,241 Climbing FlightAware ADS-B
Fri 12:57:33 AM 40.7872 -105.0930 323° Northwest 419 482 26,700 522 Climbing FlightAware ADS-B
Fri 12:58:04 AM 40.8330 -105.1450 319° Northwest 436 502 26,900 324 Climbing FlightAware ADS-B
Fri 12:58:10 AM 40.8430 -105.1560 320° Northwest 433 498 26,900 1,174 Level FlightAware ADS-B
Fri 12:58:50 AM 40.9024 -105.2320 316° Northwest 448 516 27,800 1,263 Climbing FlightAware ADS-B
Fri 12:59:26 AM 40.9510 -105.3060 311° West 451 519 28,500 1,378 Climbing FlightAware ADS-B
Fri 01:00:04 AM 41.0030 -105.3860 311° West 454 522 29,500 1,829 Climbing FlightAware ADS-B
Fri 01:00:48 AM 41.0630 -105.4780 311° West 441 507 31,000 1,909 Climbing FlightAware ADS-B
Fri 01:01:32 AM 41.1210 -105.5660 311° West 436 502 32,300 1,643 Climbing FlightAware ADS-B
Fri 01:02:12 AM 41.1730 -105.6460 311° West 433 498 33,300 1,357 Climbing FlightAware ADS-B
Fri 01:02:56 AM 41.2290 -105.7320 311° West 429 494 34,200 1,256 Climbing FlightAware ADS-B
Fri 01:03:38 AM 41.2840 -105.8180 310° West 427 491 35,100 1,116 Climbing FlightAware ADS-B
Fri 01:04:22 AM 41.3410 -105.9060 311° West 427 491 35,800 643 Climbing FlightAware ADS-B
Fri 01:05:02 AM 41.3930 -105.9870 311° West 429 494 36,000 118 Climbing FlightAware ADS-B
Fri 01:06:04 AM 41.4720 -106.1100 311° West 430 495 36,000  Level FlightAware ADS-B
Fri 01:06:48 AM 41.5290 -106.1990 311° West 429 494 36,000  Level FlightAware ADS-B
Fri 01:07:30 AM 41.5810 -106.2810 310° West 429 494 36,000  Level FlightAware ADS-B
Fri 01:08:03 AM 41.6190 -106.3400 311° West 429 494 36,000  Level FlightAware ADS-B
Fri 01:08:51 AM 41.6710 -106.4230 310° West 429 494 36,000  Level FlightAware ADS-B
Fri 01:09:28 AM 41.7110 -106.4870 310° West 429 494 36,000  Level FlightAware ADS-B
Fri 01:10:16 AM 41.7630 -106.5710 310° West 429 494 36,000  Level FlightAware ADS-B
Fri 01:10:56 AM 41.8060 -106.6400 310° West 429 494 36,000  Level FlightAware ADS-B
Fri 01:11:39 AM 41.8530 -106.7140 310° West 429 494 36,000  Level FlightAware ADS-B
Fri 01:12:25 AM 41.9030 -106.7940 310° West 429 494 36,000  Level FlightAware ADS-B
Fri 01:13:01 AM 41.9420 -106.8570 310° West 429 494 36,000  Level FlightAware ADS-B
Fri 01:13:49 AM 41.9940 -106.9400 310° West 429 494 36,000  Level FlightAware ADS-B
Fri 01:14:25 AM 42.0330 -107.0030 310° West 429 494 36,000  Level FlightAware ADS-B
Fri 01:15:19 AM 42.0910 -107.0970 310° West 429 494 36,000  Level FlightAware ADS-B
Fri 01:16:09 AM 42.1460 -107.1840 310° West 429 494 36,000  Level FlightAware ADS-B
Fri 01:16:46 AM 42.1860 -107.2490 310° West 429 494 36,000  Level FlightAware ADS-B
Fri 01:17:34 AM 42.2380 -107.3320 310° West 429 494 36,000  Level FlightAware ADS-B
Fri 01:18:37 AM 42.4044 -107.6008 310° West 416 479 36,000  Level Salt Lake Center
Fri 01:19:38 AM 42.4872 -107.7347 310° West 417 480 36,000  Level Salt Lake Center
Fri 01:20:39 AM 42.5567 -107.8522 309° West 418 481 36,000  Level Salt Lake Center
Fri 01:21:41 AM 42.6400 -107.9894 310° West 421 484 36,000  Level Salt Lake Center
Fri 01:22:42 AM 42.7100 -108.1083 309° West 423 487 36,000  Level Salt Lake Center
Fri 01:23:43 AM 42.7808 -108.2267 309° West 423 487 36,000  Level Salt Lake Center
Fri 01:24:44 AM 42.8633 -108.3661 309° West 423 487 36,000  Level Salt Lake Center
Fri 01:25:45 AM 42.9339 -108.4861 309° West 424 488 36,000  Level Salt Lake Center
Fri 01:26:46 AM 43.0150 -108.6233 309° West 420 483 36,000  Level Salt Lake Center
Fri 01:27:47 AM 43.0850 -108.7422 309° West 419 482 36,000  Level Salt Lake Center
Fri 01:28:48 AM 43.1542 -108.8594 309° West 415 478 36,000  Level Salt Lake Center
Fri 01:29:49 AM 43.2450 -108.9853 315° West 420 483 36,000  Level Salt Lake Center
Fri 01:30:50 AM 43.3381 -109.0750 325° Northwest 428 493 36,000  Level Salt Lake Center
Fri 01:31:51 AM 43.4311 -109.1717 323° Northwest 435 501 36,000  Level Salt Lake Center
Fri 01:32:52 AM 43.5278 -109.2747 322° Northwest 436 502 36,000  Level Salt Lake Center
Fri 01:33:53 AM 43.6392 -109.3869 324° Northwest 442 509 36,000  Level Salt Lake Center
Fri 01:34:54 AM 43.7322 -109.4858 322° Northwest 442 509 36,000  Level Salt Lake Center
Fri 01:35:55 AM 43.8400 -109.5997 323° Northwest 439 505 36,000  Level Salt Lake Center
Fri 01:36:56 AM 43.9053 -109.7247 306° West 421 484 36,000  Level Salt Lake Center
Fri 01:37:57 AM 43.9711 -109.8514 306° West 423 487 36,000  Level Salt Lake Center
Fri 01:38:57 AM 44.0494 -110.0003 306° West 426 490 36,000  Level Salt Lake Center
Fri 01:39:58 AM 44.1175 -110.1289 306° West 431 496 36,000  Level Salt Lake Center
Fri 01:40:59 AM 44.1847 -110.2578 306° West 430 495 36,000  Level Salt Lake Center
Fri 01:42:00 AM 44.2639 -110.4100 306° West 434 499 36,000  Level Salt Lake Center
Fri 01:43:01 AM 44.3317 -110.5417 306° West 437 503 36,000  Level Salt Lake Center
Fri 01:44:02 AM 44.3986 -110.6750 305° West 437 503 36,000  Level Salt Lake Center
Fri 01:45:03 AM 44.4789 -110.8294 306° West 440 506 36,000  Level Salt Lake Center
Fri 01:46:04 AM 44.5472 -110.9628 306° West 441 507 36,000  Level Salt Lake Center
Fri 01:47:05 AM 44.6275 -111.1217 305° West 448 516 36,000  Level Salt Lake Center
Fri 01:48:05 AM 44.6947 -111.2578 305° West 449 517 36,000  Level Salt Lake Center
Fri 01:49:06 AM 44.7625 -111.3919 305° West 448 516 36,000  Level Salt Lake Center
Fri 01:50:07 AM 44.8433 -111.5519 306° West 452 520 36,000  Level Salt Lake Center
Fri 01:51:08 AM 44.9119 -111.6908 305° West 454 522 36,000  Level Salt Lake Center
Fri 01:52:09 AM 44.9925 -111.8536 305° West 453 521 36,000  Level Salt Lake Center
Fri 01:53:10 AM 45.0614 -111.9922 305° West 453 521 36,000  Level Salt Lake Center
Fri 01:54:11 AM 45.1292 -112.1333 304° West 453 521 36,000  Level Salt Lake Center
Fri 01:55:12 AM 45.2100 -112.2989 305° West 457 526 36,000  Level Salt Lake Center
Fri 01:56:13 AM 45.2792 -112.4397 305° West 456 525 36,000  Level Salt Lake Center
Fri 01:57:13 AM 45.3475 -112.5825 304° West 457 526 36,000  Level Salt Lake Center
Fri 01:58:14 AM 45.4267 -112.7503 304° West 459 528 36,000  Level Salt Lake Center
Fri 01:59:15 AM 45.4989 -112.9011 304° West 459 528 36,000  Level Salt Lake Center
Fri 02:00:16 AM 45.5714 -113.0536 304° West 463 533 36,000  Level Salt Lake Center
Fri 02:01:17 AM 45.6419 -113.2058 304° West 461 531 36,000  Level Salt Lake Center
Fri 02:02:18 AM 45.7139 -113.3583 304° West 461 531 36,000  Level Salt Lake Center
Fri 02:03:19 AM 45.7844 -113.5114 304° West 460 529 36,000  Level Salt Lake Center
Fri 02:04:19 AM 45.8544 -113.6567 305° West 459 528 36,000  Level Salt Lake Center
Fri 02:05:20 AM 45.9256 -113.8100 304° West 463 533 36,000 -49 Level Salt Lake Center
Fri 02:06:21 AM 45.9947 -113.9636 303° West 460 529 35,900  Descending Salt Lake Center
Fri 02:07:22 AM 46.0644 -114.1161 303° West 457 526 36,000 49 Climbing Salt Lake Center
Fri 02:08:23 AM 46.1353 -114.2703 304° West 461 531 36,000  Level Salt Lake Center
Fri 02:09:23 AM 46.2042 -114.4244 303° West 459 528 36,000 -50 Level Salt Lake Center
Fri 02:10:24 AM 46.2739 -114.5783 303° West 458 527 35,900  Descending Salt Lake Center
Fri 02:11:15 AM 46.3428 -114.7339 303° West 458 527 36,000 54 Climbing Seattle Center
Fri 02:12:16 AM 46.4114 -114.8894 303° West 459 528 36,000  Level Seattle Center
Fri 02:13:16 AM 46.4825 -115.0506 303° West 461 531 36,000 -150 Level Seattle Center
Fri 02:14:16 AM 46.5503 -115.2081 302° West 464 534 35,700 -793 Descending Seattle Center
Fri 02:15:17 AM 46.6192 -115.3647 303° West 462 532 34,400 -2,083 Descending Seattle Center
Fri 02:16:17 AM 46.6872 -115.5217 302° West 460 529 31,500 -2,579 Descending Seattle Center
Fri 02:17:18 AM 46.7542 -115.6761 302° West 453 521 29,200 -2,380 Descending Seattle Center
Fri 02:18:18 AM 46.8175 -115.8242 302° West 435 501 26,700 -2,430 Descending Seattle Center
Fri 02:19:19 AM 46.8786 -115.9694 302° West 424 488 24,300 -2,281 Descending Seattle Center
Fri 02:20:19 AM 46.9397 -116.1100 303° West 412 474 22,100 -2,182 Descending Seattle Center
Fri 02:21:20 AM 46.9961 -116.2453 301° West 393 452 19,900 -2,077 Descending Seattle Center
Fri 02:23:21 AM 47.1044 -116.5022 302° West 370 426 15,800 -1,989 Descending Seattle Center
Fri 02:24:21 AM 47.1558 -116.6242 302° West 352 405 13,900 -1,983 Descending Seattle Center
Fri 02:25:22 AM 47.2042 -116.7417 301° West 337 388 11,800 -1,686 Descending Seattle Center
Fri 02:26:22 AM 47.2519 -116.8553 302° West 326 375 10,500 -1,041 Descending Seattle Center
Fri 02:27:23 AM 47.3017 -116.9522 307° West 285 328 9,700 -1,190 Descending Seattle Center
Fri 02:28:23 AM 47.3736 -117.0203 327° Northwest 285 328 8,100 -1,339 Descending Seattle Center
Fri 02:29:24 AM 47.4375 -117.0861 325° Northwest 282 325 7,000 -545 Descending Seattle Center
Fri 02:30:24 AM 47.4983 -117.1506 324° Northwest 272 313 7,000 -50 Level Seattle Center
Fri 02:31:25 AM 47.5567 -117.2133 324° Northwest 261 300 6,900 -496 Descending Seattle Center
Fri 02:32:25 AM 47.6167 -117.2575 334° Northwest 246 283 6,000 -550 Descending Seattle Center
Fri 02:33:25 AM 47.6714 -117.2986 333° Northwest 235 270 5,800 -595 Descending Seattle Center
Fri 02:34:26 AM 47.7156 -117.3450 325° Northwest 200 230 4,800 -984 Descending Seattle Center

Login

Don't have an account? Register now (free) for customized features, flight alerts, and more!